Time;durP1;ratioP1;P1;durP2;ratioP2;P2;SDS_P1;SDS_P2;PMS_P1;PMS_P2;Temp;Humidity;BMP_temperature;BMP_pressure;BME280_temperature;BME280_humidity;BME280_pressure;Samples;Min_cycle;Max_cycle;Signal;HPM_P1;HPM_P2
2022/05/31 00:01:49;;;;;;;3.85;1.60;;;9.70;99.90;;;;;;6244583;22;20486;-90
2022/05/31 00:04:15;;;;;;;3.05;1.35;;;9.70;99.90;;;;;;6245540;22;20015;-93
2022/05/31 00:06:42;;;;;;;2.97;1.60;;;9.70;99.90;;;;;;6246433;22;20020;-93
2022/05/31 00:09:08;;;;;;;3.22;1.55;;;9.70;99.90;;;;;;6246514;22;20075;-92
2022/05/31 00:11:36;;;;;;;3.63;1.58;;;9.70;99.90;;;;;;6245872;22;20090;-90
2022/05/31 00:14:03;;;;;;;3.85;1.58;;;9.60;99.90;;;;;;6246514;22;20096;-91
2022/05/31 00:16:29;;;;;;;3.45;1.55;;;9.60;99.90;;;;;;6246847;22;20468;-92
2022/05/31 00:18:55;;;;;;;3.38;1.50;;;9.60;99.90;;;;;;6247961;22;20015;-93
2022/05/31 00:21:24;;;;;;;3.17;1.43;;;9.60;99.90;;;;;;6246737;22;20522;-90
2022/05/31 00:23:50;;;;;;;3.22;1.65;;;9.60;99.90;;;;;;6246791;22;20015;-91
2022/05/31 00:26:16;;;;;;;2.63;1.50;;;9.60;99.90;;;;;;6246451;22;20103;-92
2022/05/31 00:28:41;;;;;;;3.70;1.63;;;9.60;99.90;;;;;;6247176;22;20044;-93
2022/05/31 00:31:08;;;;;;;3.60;1.57;;;9.60;99.90;;;;;;6246748;22;20023;-93
2022/05/31 00:33:34;;;;;;;2.38;1.20;;;9.50;99.90;;;;;;6246455;22;20051;-90
2022/05/31 00:36:00;;;;;;;2.63;0.95;;;9.50;99.90;;;;;;6246634;22;20015;-90
2022/05/31 00:38:26;;;;;;;3.22;1.40;;;9.40;99.90;;;;;;6246351;22;20099;-91
2022/05/31 00:40:52;;;;;;;2.43;1.40;;;9.40;99.90;;;;;;6246738;22;20058;-91
2022/05/31 00:43:22;;;;;;;3.07;1.40;;;9.40;99.90;;;;;;6246476;22;20022;-92
2022/05/31 00:46:03;;;;;;;3.15;1.58;;;9.40;99.90;;;;;;6246291;22;20012;-89
2022/05/31 00:48:38;;;;;;;3.17;1.27;;;9.40;99.90;;;;;;6246534;22;20019;-90
2022/05/31 00:51:09;;;;;;;3.70;1.48;;;9.50;99.90;;;;;;6249655;22;20047;-93
2022/05/31 00:53:39;;;;;;;2.78;1.30;;;9.50;99.90;;;;;;6267977;22;20012;-91
2022/05/31 00:56:13;;;;;;;3.75;1.42;;;9.50;99.90;;;;;;6252226;22;20020;-93
2022/05/31 00:58:52;;;;;;;2.92;1.50;;;9.40;99.90;;;;;;6246868;22;20016;-96
2022/05/31 01:01:18;;;;;;;3.50;1.75;;;9.40;99.90;;;;;;6246554;22;20011;-91
2022/05/31 01:03:45;;;;;;;3.75;1.55;;;9.40;99.90;;;;;;6246362;22;20090;-94
2022/05/31 01:06:12;;;;;;;3.13;1.40;;;9.40;99.90;;;;;;6246567;22;20112;-90
2022/05/31 01:08:45;;;;;;;3.97;1.77;;;9.40;99.90;;;;;;6246673;22;20106;-92
2022/05/31 01:11:20;;;;;;;2.95;1.30;;;9.40;99.90;;;;;;6248442;22;20016;-91
2022/05/31 01:13:46;;;;;;;2.97;1.38;;;9.40;99.90;;;;;;6246443;22;20016;-96
2022/05/31 01:16:15;;;;;;;3.17;1.40;;;9.40;99.90;;;;;;6246845;22;20056;-92
2022/05/31 01:18:41;;;;;;;3.38;1.60;;;9.40;99.90;;;;;;6272019;22;20090;-93
2022/05/31 01:21:08;;;;;;;4.00;1.70;;;9.30;99.90;;;;;;6246832;22;20023;-91
2022/05/31 01:23:54;;;;;;;;;;;9.40;99.90;;;;;;6247438;22;20038;-94
2022/05/31 01:26:55;;;;;;;3.17;1.50;;;9.30;99.90;;;;;;6246249;22;20244;-93
2022/05/31 01:29:29;;;;;;;4.07;2.22;;;9.40;99.90;;;;;;6246046;22;20051;-92
2022/05/31 01:31:59;;;;;;;4.00;1.88;;;9.40;99.90;;;;;;6246011;22;20018;-90
2022/05/31 01:34:52;;;;;;;4.32;1.40;;;9.40;99.90;;;;;;6245990;22;20371;-92
2022/05/31 01:37:25;;;;;;;3.63;1.85;;;9.40;99.90;;;;;;6245744;22;20019;-90
2022/05/31 01:39:57;;;;;;;3.80;1.80;;;9.40;99.90;;;;;;6246169;22;20103;-93
2022/05/31 01:42:42;;;;;;;3.78;1.50;;;9.40;99.90;;;;;;6246401;22;20047;-90
2022/05/31 01:45:10;;;;;;;4.03;1.92;;;9.40;99.90;;;;;;6246201;22;20437;-94
2022/05/31 01:47:36;;;;;;;4.38;1.85;;;9.40;99.90;;;;;;6245937;22;20348;-90
2022/05/31 01:50:06;;;;;;;3.72;1.77;;;9.40;99.90;;;;;;6246164;22;20440;-93
2022/05/31 01:52:33;;;;;;;3.20;1.40;;;9.40;99.90;;;;;;6246360;22;20027;-91
2022/05/31 01:54:58;;;;;;;;;;;9.40;99.90;;;;;;6246320;22;20020;-90
2022/05/31 01:57:24;;;;;;;3.00;1.67;;;9.40;99.90;;;;;;6245602;22;19915;-93
2022/05/31 01:59:56;;;;;;;4.10;1.83;;;9.30;99.90;;;;;;6246347;22;20015;-92
2022/05/31 02:02:22;;;;;;;3.70;1.70;;;9.30;99.90;;;;;;6246008;22;20050;-91
2022/05/31 02:04:48;;;;;;;3.17;1.60;;;9.30;99.90;;;;;;6246465;22;20015;-91
2022/05/31 02:07:19;;;;;;;4.72;1.88;;;9.30;99.90;;;;;;6245896;22;20295;-91
2022/05/31 02:09:48;;;;;;;3.53;1.67;;;9.30;99.90;;;;;;6247198;22;20016;-91
2022/05/31 02:12:15;;;;;;;3.22;1.50;;;9.30;99.90;;;;;;6246079;22;20016;-92
2022/05/31 02:14:41;;;;;;;4.03;2.00;;;9.30;99.90;;;;;;6246269;22;20019;-92
2022/05/31 02:17:10;;;;;;;2.85;1.38;;;9.30;99.90;;;;;;6248024;22;20015;-92
2022/05/31 02:19:36;;;;;;;4.03;1.75;;;9.30;99.90;;;;;;6246282;22;20050;-90
2022/05/31 02:22:07;;;;;;;4.10;1.95;;;9.30;99.90;;;;;;6245973;22;20016;-90
2022/05/31 02:24:33;;;;;;;4.45;1.85;;;9.30;99.90;;;;;;6245862;22;20015;-91
2022/05/31 02:27:00;;;;;;;3.75;1.58;;;9.30;99.90;;;;;;6246239;22;20044;-89
2022/05/31 02:29:29;;;;;;;5.25;1.90;;;9.30;99.90;;;;;;6245912;22;20016;-90
2022/05/31 02:32:00;;;;;;;3.40;1.52;;;9.30;99.90;;;;;;6245560;22;20015;-90
2022/05/31 02:34:30;;;;;;;3.55;1.73;;;9.30;99.90;;;;;;6245792;22;20023;-90
2022/05/31 02:36:56;;;;;;;2.83;1.30;;;9.30;99.90;;;;;;6245816;22;20012;-89
2022/05/31 02:39:22;;;;;;;4.82;1.85;;;9.30;99.90;;;;;;6245791;22;20097;-91
2022/05/31 02:41:48;;;;;;;4.05;1.77;;;9.30;99.90;;;;;;6245797;22;20039;-90
2022/05/31 02:44:14;;;;;;;2.90;1.55;;;9.30;99.90;;;;;;6245866;22;20016;-94
2022/05/31 02:46:41;;;;;;;3.10;1.67;;;9.30;99.90;;;;;;6246099;22;20054;-94
2022/05/31 02:49:07;;;;;;;;;;;9.30;99.90;;;;;;6247320;22;20096;-91
2022/05/31 02:51:38;;;;;;;4.45;1.88;;;9.30;99.90;;;;;;6252371;22;19946;-91
2022/05/31 02:54:05;;;;;;;3.53;1.85;;;9.20;99.90;;;;;;6264362;22;20016;-90
2022/05/31 02:56:31;;;;;;;;;;;9.20;99.90;;;;;;6247725;22;20350;-90
2022/05/31 02:58:57;;;;;;;3.45;1.60;;;9.20;99.90;;;;;;6245888;22;19922;-90
2022/05/31 03:01:34;;;;;;;4.50;2.00;;;9.20;99.90;;;;;;6245666;22;20402;-93
2022/05/31 03:04:00;;;;;;;5.07;2.20;;;9.20;99.90;;;;;;6245590;22;20015;-92
2022/05/31 03:06:26;;;;;;;4.00;1.97;;;9.20;99.90;;;;;;6245865;22;20016;-90
2022/05/31 03:08:52;;;;;;;4.13;1.97;;;9.20;99.90;;;;;;6244894;22;20027;-91
2022/05/31 03:11:23;;;;;;;4.47;2.10;;;9.20;99.90;;;;;;6245476;22;20016;-90
2022/05/31 03:13:52;;;;;;;3.70;1.77;;;9.20;99.90;;;;;;6245693;22;20071;-90
2022/05/31 03:16:21;;;;;;;4.18;1.95;;;9.20;99.90;;;;;;6245587;22;20069;-90
2022/05/31 03:18:56;;;;;;;4.05;1.80;;;9.20;99.90;;;;;;6245473;22;20058;-92
2022/05/31 03:21:29;;;;;;;4.07;1.92;;;9.20;99.90;;;;;;6245950;22;20012;-91
2022/05/31 03:24:02;;;;;;;5.10;2.47;;;9.10;99.90;;;;;;6245535;22;20027;-91
2022/05/31 03:26:30;;;;;;;4.55;1.60;;;9.10;99.90;;;;;;6245445;22;20443;-92
2022/05/31 03:28:56;;;;;;;4.50;2.22;;;9.10;99.90;;;;;;6245386;22;20016;-90
2022/05/31 03:31:23;;;;;;;4.80;2.30;;;9.20;99.90;;;;;;6245432;22;20019;-90
2022/05/31 03:33:49;;;;;;;4.30;1.98;;;9.20;99.90;;;;;;6272470;22;20019;-91
2022/05/31 03:36:14;;;;;;;3.77;1.97;;;9.20;99.90;;;;;;6245008;22;20012;-92
2022/05/31 03:38:40;;;;;;;4.63;2.13;;;9.20;99.90;;;;;;6245384;22;20012;-93
2022/05/31 03:41:06;;;;;;;4.60;1.87;;;9.20;99.90;;;;;;6245381;22;20449;-90
2022/05/31 03:43:35;;;;;;;4.90;2.33;;;9.20;99.90;;;;;;6245226;22;20277;-93
2022/05/31 03:46:01;;;;;;;4.60;2.10;;;9.20;99.90;;;;;;6245068;22;20019;-90
2022/05/31 03:48:27;;;;;;;4.07;2.08;;;9.20;99.90;;;;;;6271862;22;20012;-94
2022/05/31 03:51:01;;;;;;;4.40;2.08;;;9.20;99.90;;;;;;6245222;22;20019;-90
2022/05/31 03:53:28;;;;;;;5.43;2.38;;;9.20;99.90;;;;;;6244889;22;20010;-92
2022/05/31 03:55:53;;;;;;;4.63;2.10;;;9.20;99.90;;;;;;6244942;22;20019;-90
2022/05/31 03:58:20;;;;;;;4.60;2.20;;;9.20;99.90;;;;;;6245075;22;20012;-90
2022/05/31 04:00:46;;;;;;;;;;;9.20;99.90;;;;;;6245628;22;20344;-90
2022/05/31 04:03:13;;;;;;;3.30;1.80;;;9.20;99.90;;;;;;6245207;22;19911;-91
2022/05/31 04:05:38;;;;;;;4.60;2.22;;;9.20;99.90;;;;;;6245204;22;20517;-93
2022/05/31 04:08:08;;;;;;;4.63;2.20;;;9.20;99.90;;;;;;6244993;22;20019;-92
2022/05/31 04:10:35;;;;;;;4.60;2.13;;;9.30;99.90;;;;;;6244893;22;20035;-91
2022/05/31 04:13:02;;;;;;;4.32;1.95;;;9.30;99.90;;;;;;6245349;22;20103;-91
2022/05/31 04:15:28;;;;;;;;;;;9.30;99.90;;;;;;6245927;22;20039;-93
2022/05/31 04:17:54;;;;;;;4.75;2.22;;;9.30;99.90;;;;;;6247486;22;20325;-94
2022/05/31 04:20:20;;;;;;;4.43;2.40;;;9.30;99.90;;;;;;6271847;22;20016;-93
2022/05/31 04:22:46;;;;;;;6.30;2.13;;;9.30;99.90;;;;;;6246891;22;20016;-91
2022/05/31 04:25:12;;;;;;;5.53;2.67;;;9.30;99.90;;;;;;6246589;22;20020;-90
2022/05/31 04:27:38;;;;;;;5.20;2.40;;;9.30;99.90;;;;;;6246478;22;20465;-91
2022/05/31 04:30:04;;;;;;;4.90;2.13;;;9.30;99.90;;;;;;6245405;22;20395;-92
2022/05/31 04:32:30;;;;;;;4.97;2.50;;;9.30;99.90;;;;;;6246476;22;20022;-91
2022/05/31 04:34:56;;;;;;;4.10;2.30;;;9.40;99.90;;;;;;6246342;22;20020;-92
2022/05/31 04:37:22;;;;;;;4.53;2.28;;;9.40;99.90;;;;;;6246571;22;20062;-91
2022/05/31 04:39:48;;;;;;;4.40;2.20;;;9.40;99.90;;;;;;6246489;22;20015;-91
2022/05/31 04:42:17;;;;;;;5.23;2.40;;;9.40;99.90;;;;;;6246459;22;20096;-91
2022/05/31 04:44:43;;;;;;;5.28;2.05;;;9.40;99.90;;;;;;6246931;22;20020;-91
2022/05/31 04:47:17;;;;;;;5.05;2.42;;;9.50;99.90;;;;;;6246457;22;20027;-91
2022/05/31 05:02:40;;;;;;;5.80;2.83;;;9.60;99.90;;;;;;6242519;22;20077;-91
2022/05/31 05:05:07;;;;;;;5.37;2.50;;;9.60;99.90;;;;;;6191391;23;20020;-92
2022/05/31 05:07:32;;;;;;;5.47;2.55;;;9.60;99.90;;;;;;6191348;22;20248;-93
2022/05/31 05:09:58;;;;;;;5.17;2.73;;;9.60;99.90;;;;;;6191170;23;20020;-89
2022/05/31 05:12:24;;;;;;;5.80;3.17;;;9.60;99.90;;;;;;6191131;23;20437;-91
2022/05/31 05:18:58;;;;;;;5.38;2.65;;;9.70;99.90;;;;;;6242901;23;20027;-92
2022/05/31 05:31:46;;;;;;;5.13;3.05;;;9.80;99.90;;;;;;6403366;22;20442;-93
2022/05/31 05:34:12;;;;;;;4.83;2.83;;;9.80;99.90;;;;;;6349382;22;20020;-93
2022/05/31 05:59:59;;;;;;;5.82;3.20;;;10.20;99.90;;;;;;6247416;22;20340;-89
2022/05/31 06:05:29;;;;;;;6.50;3.67;;;10.30;99.90;;;;;;6197013;22;20029;-91
2022/05/31 06:18:21;;;;;;;6.90;3.60;;;10.40;99.90;;;;;;6245715;22;20024;-93
2022/05/31 06:21:02;;;;;;;5.90;3.30;;;10.40;99.90;;;;;;6215742;23;20024;-89
2022/05/31 06:23:27;;;;;;;7.28;3.30;;;10.50;99.90;;;;;;6216238;23;20016;-89
2022/05/31 06:28:29;;;;;;;5.95;3.05;;;10.60;99.90;;;;;;6242076;23;20028;-90
2022/05/31 06:33:44;;;;;;;6.82;3.35;;;10.70;99.90;;;;;;6232175;22;20032;-90
2022/05/31 06:36:10;;;;;;;6.53;3.28;;;10.70;99.90;;;;;;6348890;22;20016;-94
2022/05/31 06:38:36;;;;;;;6.85;3.58;;;10.70;99.90;;;;;;6348847;22;20020;-94
2022/05/31 06:46:13;;;;;;;7.80;3.78;;;10.80;99.90;;;;;;6242172;23;20024;-90
2022/05/31 06:48:38;;;;;;;6.65;3.35;;;10.90;99.90;;;;;;6216207;23;20050;-92
2022/05/31 06:51:06;;;;;;;8.00;3.28;;;10.90;99.90;;;;;;6223901;23;20383;-89
2022/05/31 06:58:42;;;;;;;5.30;3.03;;;11.10;99.90;;;;;;6348947;22;20020;-90
2022/05/31 07:01:07;;;;;;;5.47;2.93;;;11.10;99.90;;;;;;6215728;23;20024;-90
2022/05/31 07:27:00;;;;;;;6.07;3.30;;;11.70;99.90;;;;;;6241641;23;20047;-93
2022/05/31 08:33:55;;;;;;;5.32;2.65;;;14.00;99.90;;;;;;6339572;22;20022;-93
2022/05/31 08:36:21;;;;;;;4.63;2.40;;;14.00;99.90;;;;;;6350507;22;20018;-92
2022/05/31 08:38:47;;;;;;;6.25;2.17;;;14.00;99.90;;;;;;6349854;22;20086;-92
2022/05/31 09:07:22;;;;;;;3.65;1.65;;;14.60;99.90;;;;;;6403359;22;20022;-95
2022/05/31 12:47:36;;;;;;;3.08;1.40;;;16.60;99.90;;;;;;6322930;22;20020;-91
2022/05/31 13:03:27;;;;;;;2.25;1.20;;;16.00;99.90;;;;;;6222181;22;20024;-90
2022/05/31 13:08:52;;;;;;;3.47;1.38;;;15.90;99.90;;;;;;6218194;23;19916;-91
2022/05/31 13:24:28;;;;;;;2.13;1.15;;;15.50;99.90;;;;;;6246182;23;20083;-88
2022/05/31 13:26:54;;;;;;;3.17;1.10;;;15.40;99.90;;;;;;6218939;23;20025;-89
2022/05/31 13:29:21;;;;;;;2.15;1.13;;;15.40;99.90;;;;;;6218601;23;20026;-92
2022/05/31 13:31:52;;;;;;;2.10;1.00;;;15.40;99.90;;;;;;6216735;23;20016;-91
2022/05/31 13:34:33;;;;;;;1.90;0.80;;;15.40;99.90;;;;;;6321502;22;20016;-91
2022/05/31 13:37:01;;;;;;;3.58;1.42;;;15.40;99.90;;;;;;6348961;22;20023;-91
2022/05/31 13:39:29;;;;;;;2.92;1.10;;;15.30;99.90;;;;;;6217803;23;20016;-91
2022/05/31 13:42:04;;;;;;;2.58;1.10;;;15.30;99.90;;;;;;6247787;22;20072;-91
2022/05/31 15:02:35;;;;;;;3.67;1.80;;;14.00;99.90;;;;;;6238841;22;20055;-93
2022/05/31 19:01:28;;;;;;;5.97;2.55;;;12.80;99.90;;;;;;6270841;22;20059;-92
2022/05/31 19:03:56;;;;;;;4.85;2.70;;;12.80;99.90;;;;;;6352412;22;20482;-95
2022/05/31 19:06:22;;;;;;;5.25;2.58;;;12.80;99.90;;;;;;6322130;22;20027;-94
2022/05/31 20:36:46;;;;;;;4.03;1.65;;;11.80;99.90;;;;;;6242277;22;20035;-91
2022/05/31 20:39:18;;;;;;;3.90;1.67;;;11.80;99.90;;;;;;6216461;23;20024;-91
2022/05/31 20:41:46;;;;;;;4.00;1.77;;;11.80;99.90;;;;;;6191590;23;20016;-93
2022/05/31 20:44:13;;;;;;;3.53;1.80;;;11.80;99.90;;;;;;6191422;23;20137;-93
2022/05/31 20:46:39;;;;;;;3.25;1.67;;;11.80;99.90;;;;;;6192075;23;20016;-95
2022/05/31 20:49:33;;;;;;;4.32;1.98;;;11.80;99.90;;;;;;6192662;22;20020;-94
2022/05/31 20:52:02;;;;;;;4.38;2.08;;;11.90;99.90;;;;;;6196138;22;20383;-94
2022/05/31 20:54:28;;;;;;;3.47;1.70;;;11.80;99.90;;;;;;6191294;22;20049;-95
2022/05/31 21:00:11;;;;;;;4.57;2.55;;;11.80;99.90;;;;;;6247337;22;19946;-92
2022/05/31 21:02:37;;;;;;;4.15;2.10;;;11.80;99.90;;;;;;6205863;23;20018;-96
2022/05/31 21:05:15;;;;;;;3.05;1.58;;;11.80;99.90;;;;;;6197853;23;20055;-96
2022/05/31 21:07:48;;;;;;;4.07;1.88;;;11.70;99.90;;;;;;6196436;23;20027;-96
2022/05/31 21:35:47;;;;;;;3.35;1.77;;;11.40;99.90;;;;;;6401421;22;20030;-92
2022/05/31 21:38:15;;;;;;;4.97;1.85;;;11.40;99.90;;;;;;6351806;22;20017;-92
2022/05/31 22:28:00;;;;;;;5.97;2.65;;;10.90;99.90;;;;;;6225838;22;20024;-90
2022/05/31 22:31:13;;;;;;;6.43;2.30;;;10.90;99.90;;;;;;6222446;22;20019;-91
2022/05/31 22:34:08;;;;;;;4.60;2.47;;;10.90;99.90;;;;;;6219049;22;20085;-94
2022/05/31 22:54:42;;;;;;;5.18;2.70;;;10.70;99.90;;;;;;6212357;22;20025;-92
2022/05/31 22:57:09;;;;;;;4.78;2.80;;;10.70;99.90;;;;;;6217740;22;20453;-90
2022/05/31 23:31:23;;;;;;;3.70;1.80;;;10.40;99.90;;;;;;6401670;22;20024;-91
2022/05/31 23:34:18;;;;;;;3.63;1.98;;;10.40;99.90;;;;;;6381316;22;20059;-91
2022/05/31 23:37:15;;;;;;;4.35;2.08;;;10.40;99.90;;;;;;6408921;22;20510;-90
2022/05/31 23:39:45;;;;;;;3.45;1.83;;;10.30;99.90;;;;;;6383233;22;20010;-90
2022/05/31 23:42:32;;;;;;;3.72;2.00;;;10.30;99.90;;;;;;6348113;22;20524;-91
2022/05/31 23:45:09;;;;;;;3.80;2.05;;;10.20;99.90;;;;;;6350059;22;20056;-90
2022/05/31 23:47:38;;;;;;;3.28;1.60;;;10.30;99.90;;;;;;6374655;22;20059;-95
